createdAt,value
2022-10-31T00:01:38.712Z,21.03
2022-10-31T00:04:06.814Z,23.60
2022-10-31T00:06:33.886Z,22.77
2022-10-31T00:09:04.216Z,18.80
2022-10-31T00:11:32.045Z,19.83
2022-10-31T00:14:00.208Z,18.00
2022-10-31T00:16:28.835Z,15.43
2022-10-31T00:19:00.659Z,17.23
2022-10-31T00:21:29.117Z,16.63
2022-10-31T00:23:56.182Z,20.03
2022-10-31T00:26:23.238Z,19.07
2022-10-31T00:28:50.276Z,18.70
2022-10-31T00:31:17.252Z,22.10
2022-10-31T00:33:44.448Z,27.97
2022-10-31T00:36:18.965Z,23.23
2022-10-31T00:38:50.363Z,26.97
2022-10-31T00:41:19.142Z,26.67
2022-10-31T00:43:46.473Z,21.53
2022-10-31T00:46:14.731Z,20.30
2022-10-31T00:48:42.379Z,21.93
2022-10-31T00:51:09.922Z,23.33
2022-10-31T00:53:36.912Z,13.40
2022-10-31T00:56:07.482Z,17.20
2022-10-31T00:58:34.564Z,18.33
2022-10-31T01:01:01.719Z,20.33
2022-10-31T01:03:33.417Z,20.23
2022-10-31T01:06:09.696Z,16.43
2022-10-31T01:08:38.725Z,19.57
2022-10-31T01:11:20.898Z,14.77
2022-10-31T01:13:52.002Z,19.00
2022-10-31T01:16:23.470Z,22.27
2022-10-31T01:18:51.131Z,27.17
2022-10-31T01:21:25.918Z,26.00
2022-10-31T01:23:56.149Z,22.20
2022-10-31T01:26:32.756Z,16.83
2022-10-31T01:29:06.996Z,20.73
2022-10-31T01:31:39.509Z,15.60
2022-10-31T01:34:07.665Z,19.73
2022-10-31T01:36:40.681Z,21.10
2022-10-31T01:39:16.086Z,23.17
2022-10-31T01:41:48.476Z,21.47
2022-10-31T01:44:15.266Z,19.17
2022-10-31T01:47:05.080Z,22.77
2022-10-31T01:49:44.754Z,19.03
2022-10-31T01:52:31.680Z,22.67
2022-10-31T01:55:10.994Z,18.83
2022-10-31T01:57:41.502Z,12.30
2022-10-31T02:00:12.067Z,12.53
2022-10-31T02:02:39.432Z,11.73
2022-10-31T02:05:13.351Z,11.47
2022-10-31T02:08:09.760Z,19.10
2022-10-31T02:10:38.519Z,18.27
2022-10-31T02:13:08.972Z,17.03
2022-10-31T02:15:39.232Z,19.80
2022-10-31T02:18:07.839Z,19.57
2022-10-31T02:21:04.997Z,22.27
2022-10-31T02:24:43.747Z,19.53
2022-10-31T02:27:50.499Z,20.57
2022-10-31T02:30:25.705Z,26.30
2022-10-31T02:33:15.757Z,21.07
2022-10-31T02:36:02.210Z,17.50
2022-10-31T02:38:57.680Z,13.30
2022-10-31T02:41:56.892Z,12.97
2022-10-31T02:44:56.237Z,14.13
2022-10-31T02:47:30.628Z,13.13
2022-10-31T02:50:23.073Z,18.13
2022-10-31T02:52:54.076Z,15.50
2022-10-31T02:55:23.903Z,15.13
2022-10-31T02:58:15.480Z,13.83
2022-10-31T03:02:01.611Z,15.50
2022-10-31T03:05:27.824Z,14.70
2022-10-31T03:08:36.735Z,14.27
2022-10-31T03:11:08.596Z,13.83
2022-10-31T03:13:57.227Z,14.70
2022-10-31T03:16:53.168Z,15.67
2022-10-31T03:19:41.051Z,17.20
2022-10-31T03:22:16.736Z,18.13
2022-10-31T03:24:45.858Z,19.23
2022-10-31T03:27:17.235Z,20.00
2022-10-31T03:29:45.871Z,20.07
2022-10-31T03:32:24.617Z,23.70
2022-10-31T03:34:54.213Z,24.77
2022-10-31T03:37:22.999Z,24.20
2022-10-31T03:39:51.079Z,22.57
2022-10-31T03:42:29.826Z,22.97
2022-10-31T03:45:18.554Z,27.43
2022-10-31T03:47:45.672Z,26.60
2022-10-31T03:50:16.070Z,29.97
2022-10-31T03:52:58.591Z,31.67
2022-10-31T03:55:35.924Z,32.90
2022-10-31T03:58:38.245Z,35.77
2022-10-31T04:01:12.246Z,17.00
2022-10-31T04:03:40.022Z,28.27
2022-10-31T04:06:15.671Z,31.03
2022-10-31T04:09:02.057Z,24.97
2022-10-31T04:11:37.924Z,31.50
2022-10-31T04:14:07.273Z,37.70
2022-10-31T04:16:34.595Z,32.40
2022-10-31T04:19:01.575Z,31.77
2022-10-31T04:21:30.257Z,34.63
2022-10-31T04:23:58.667Z,35.33
2022-10-31T04:26:25.999Z,35.80
2022-10-31T04:28:53.055Z,27.43
2022-10-31T04:31:20.820Z,36.23
2022-10-31T04:33:47.837Z,32.00
2022-10-31T04:36:14.916Z,35.40
2022-10-31T04:38:41.889Z,32.80
2022-10-31T04:41:08.822Z,32.13
2022-10-31T04:43:35.846Z,30.20
2022-10-31T04:46:03.168Z,36.73
2022-10-31T04:48:30.315Z,41.40
2022-10-31T04:51:02.443Z,35.43
2022-10-31T04:53:30.605Z,32.03
2022-10-31T04:56:02.892Z,38.97
2022-10-31T04:58:30.179Z,29.33
2022-10-31T05:00:58.202Z,31.83
2022-10-31T05:03:25.285Z,39.27
2022-10-31T05:05:52.331Z,39.17
2022-10-31T05:08:19.293Z,40.37
2022-10-31T05:10:46.262Z,39.30
2022-10-31T05:13:13.417Z,37.97
2022-10-31T05:15:40.448Z,37.47
2022-10-31T05:18:07.657Z,32.73
2022-10-31T05:20:34.849Z,52.00
2022-10-31T05:23:01.961Z,36.47
2022-10-31T05:25:30.178Z,37.87
2022-10-31T05:27:58.692Z,36.10
2022-10-31T05:30:30.810Z,25.83
2022-10-31T05:32:58.529Z,33.87
2022-10-31T05:35:33.940Z,32.00
2022-10-31T05:38:01.084Z,31.13
2022-10-31T05:40:29.520Z,33.60
2022-10-31T05:43:00.990Z,24.53
2022-10-31T05:45:28.198Z,21.03
2022-10-31T05:48:01.936Z,31.73
2022-10-31T05:50:32.188Z,27.80
2022-10-31T05:53:06.318Z,30.80
2022-10-31T05:55:34.064Z,27.83
2022-10-31T05:58:01.871Z,25.93
2022-10-31T06:00:32.802Z,29.80
2022-10-31T06:05:36.756Z,35.20
2022-10-31T06:08:04.451Z,29.03
2022-10-31T06:10:31.712Z,24.33
2022-10-31T06:12:58.777Z,27.97
2022-10-31T06:15:25.837Z,29.60
2022-10-31T06:18:19.386Z,26.00
2022-10-31T06:20:46.416Z,26.13
2022-10-31T06:23:13.469Z,21.97
2022-10-31T06:25:40.477Z,24.83
2022-10-31T06:28:07.678Z,26.50
2022-10-31T06:30:34.690Z,14.23
2022-10-31T06:33:10.319Z,30.07
2022-10-31T06:35:37.299Z,21.57
2022-10-31T06:38:04.813Z,24.93
2022-10-31T06:40:32.502Z,19.83
2022-10-31T06:43:02.058Z,24.83
2022-10-31T06:45:29.512Z,25.23
2022-10-31T06:50:45.173Z,22.37
2022-10-31T06:53:12.500Z,26.30
2022-10-31T06:55:39.804Z,25.70
2022-10-31T06:58:07.385Z,23.47
2022-10-31T07:00:34.593Z,24.07
2022-10-31T07:03:11.417Z,25.73
2022-10-31T07:05:39.056Z,25.83
2022-10-31T07:08:10.328Z,24.77
2022-10-31T07:10:41.007Z,27.60
2022-10-31T07:13:15.073Z,26.30
2022-10-31T07:15:45.384Z,24.77
2022-10-31T07:18:13.571Z,23.73
2022-10-31T07:20:40.864Z,25.70
2022-10-31T07:23:12.563Z,22.80
2022-10-31T07:25:40.917Z,23.07
2022-10-31T07:28:08.399Z,15.47
2022-10-31T07:30:35.607Z,21.53
2022-10-31T07:33:02.675Z,22.50
2022-10-31T07:35:30.855Z,20.27
2022-10-31T07:37:59.313Z,19.67
2022-10-31T07:40:26.849Z,19.77
2022-10-31T07:42:54.843Z,18.23
2022-10-31T07:45:22.236Z,18.77
2022-10-31T07:47:56.080Z,19.20
2022-10-31T07:50:29.872Z,18.47
2022-10-31T07:53:16.394Z,17.90
2022-10-31T07:55:44.479Z,18.23
2022-10-31T07:58:15.943Z,17.80
2022-10-31T08:00:46.284Z,18.27
2022-10-31T08:03:17.945Z,18.00
2022-10-31T08:05:48.642Z,18.37
2022-10-31T08:08:16.473Z,16.73
2022-10-31T08:10:44.051Z,18.60
2022-10-31T08:13:14.268Z,18.13
2022-10-31T08:15:43.022Z,16.70
2022-10-31T08:18:15.085Z,19.53
2022-10-31T08:20:44.173Z,18.90
2022-10-31T08:23:13.281Z,18.30
2022-10-31T08:25:41.167Z,18.27
2022-10-31T08:28:13.428Z,18.73
2022-10-31T08:30:41.698Z,19.00
2022-10-31T08:33:18.613Z,18.97
2022-10-31T08:35:45.999Z,18.40
2022-10-31T08:38:15.135Z,17.03
2022-10-31T08:40:42.692Z,18.93
2022-10-31T08:43:16.162Z,18.70
2022-10-31T08:45:45.658Z,19.13
2022-10-31T08:48:16.618Z,19.17
2022-10-31T08:50:46.097Z,18.63
2022-10-31T08:53:20.229Z,19.13
2022-10-31T08:55:48.135Z,19.57
2022-10-31T08:58:19.567Z,17.97
2022-10-31T09:00:50.175Z,17.40
2022-10-31T09:03:27.264Z,18.80
2022-10-31T09:06:04.916Z,17.73
2022-10-31T09:08:33.215Z,16.53
2022-10-31T09:11:00.791Z,17.73
2022-10-31T09:13:28.363Z,18.53
2022-10-31T09:15:58.822Z,18.73
2022-10-31T09:18:28.837Z,17.87
2022-10-31T09:20:59.469Z,17.17
2022-10-31T09:23:26.679Z,17.97
2022-10-31T09:25:54.778Z,18.47
2022-10-31T09:28:24.652Z,17.43
2022-10-31T09:30:54.895Z,18.17
2022-10-31T09:33:22.390Z,17.60
2022-10-31T09:35:49.745Z,18.20
2022-10-31T09:38:21.180Z,17.73
2022-10-31T09:41:56.166Z,17.60
2022-10-31T09:44:51.534Z,18.70
2022-10-31T09:47:44.563Z,18.43
2022-10-31T09:50:38.886Z,18.20
2022-10-31T09:53:27.454Z,17.97
2022-10-31T09:55:56.003Z,19.63
2022-10-31T09:58:32.110Z,18.67
2022-10-31T10:01:04.044Z,20.80
2022-10-31T10:03:47.823Z,20.13
2022-10-31T10:06:25.791Z,20.00
2022-10-31T10:08:52.763Z,19.90
2022-10-31T10:11:59.743Z,19.00
2022-10-31T10:15:31.720Z,19.27
2022-10-31T10:18:28.599Z,19.20
2022-10-31T10:21:16.903Z,19.10
2022-10-31T10:24:45.409Z,18.43
2022-10-31T10:27:32.328Z,18.83
2022-10-31T10:30:26.551Z,19.17
2022-10-31T10:33:09.175Z,19.67
2022-10-31T10:35:48.778Z,19.80
2022-10-31T10:38:51.289Z,19.20
2022-10-31T10:41:40.171Z,19.13
2022-10-31T10:44:18.446Z,19.27
2022-10-31T10:47:18.951Z,19.90
2022-10-31T10:49:56.781Z,19.63
2022-10-31T10:53:02.112Z,19.63
2022-10-31T10:56:18.952Z,19.37
2022-10-31T10:58:46.750Z,18.33
2022-10-31T11:01:24.206Z,18.90
2022-10-31T11:04:12.432Z,20.43
2022-10-31T11:06:40.219Z,19.60
2022-10-31T11:09:14.037Z,18.25
2022-10-31T11:11:41.273Z,19.08
2022-10-31T11:14:17.149Z,18.27
2022-10-31T11:16:56.662Z,18.60
2022-10-31T11:19:28.436Z,18.73
2022-10-31T11:22:18.810Z,18.38
2022-10-31T11:24:49.767Z,18.42
2022-10-31T11:27:25.074Z,18.70
2022-10-31T11:29:56.791Z,19.17
2022-10-31T11:32:30.377Z,18.58
2022-10-31T11:35:13.548Z,18.35
2022-10-31T11:37:46.620Z,19.63
2022-10-31T11:40:27.463Z,19.00
2022-10-31T11:43:00.246Z,19.13
2022-10-31T11:45:51.535Z,19.45
2022-10-31T11:48:25.556Z,17.95
2022-10-31T11:51:02.033Z,17.70
2022-10-31T11:53:33.943Z,17.77
2022-10-31T11:56:29.544Z,18.38
2022-10-31T11:59:18.602Z,18.85
2022-10-31T12:01:58.761Z,18.75
2022-10-31T12:04:41.562Z,17.85
2022-10-31T12:07:19.758Z,19.15
2022-10-31T12:09:46.913Z,19.92
2022-10-31T12:12:30.451Z,19.67
2022-10-31T12:15:36.789Z,18.75
2022-10-31T12:18:52.472Z,19.77
2022-10-31T12:21:52.901Z,18.63
2022-10-31T12:24:56.961Z,19.65
2022-10-31T12:27:35.594Z,19.83
2022-10-31T12:30:28.161Z,19.25
2022-10-31T12:33:22.758Z,17.45
2022-10-31T12:36:42.306Z,17.02
2022-10-31T12:39:29.890Z,17.80
2022-10-31T12:42:56.414Z,18.33
2022-10-31T12:45:41.646Z,17.67
2022-10-31T12:49:23.743Z,18.73
2022-10-31T12:52:29.309Z,22.95
2022-10-31T12:55:32.201Z,16.88
2022-10-31T12:58:41.932Z,18.30
2022-10-31T13:01:38.603Z,16.55
2022-10-31T13:04:41.632Z,17.80
2022-10-31T13:07:39.927Z,16.25
2022-10-31T13:10:43.871Z,17.20
2022-10-31T13:13:39.179Z,17.15
2022-10-31T13:16:52.880Z,17.20
2022-10-31T13:19:38.020Z,16.13
2022-10-31T13:22:38.374Z,17.60
2022-10-31T13:25:50.646Z,16.88
2022-10-31T13:29:21.544Z,16.77
2022-10-31T13:31:55.022Z,16.80
2022-10-31T13:34:48.865Z,17.17
2022-10-31T13:37:45.293Z,17.33
2022-10-31T13:40:58.400Z,15.80
2022-10-31T13:44:19.016Z,17.52
2022-10-31T13:46:46.989Z,17.15
2022-10-31T13:49:35.629Z,15.85
2022-10-31T13:52:30.889Z,17.27
2022-10-31T13:55:24.956Z,16.50
2022-10-31T13:57:54.835Z,17.05
2022-10-31T14:00:22.188Z,16.70
2022-10-31T14:03:01.083Z,17.35
2022-10-31T14:05:36.221Z,17.20
2022-10-31T14:08:23.231Z,18.00
2022-10-31T14:11:20.538Z,17.85
2022-10-31T14:13:48.153Z,18.02
2022-10-31T14:16:33.328Z,18.70
2022-10-31T14:19:08.529Z,19.17
2022-10-31T14:21:43.804Z,18.17
2022-10-31T14:24:26.345Z,18.30
2022-10-31T14:27:27.139Z,18.77
2022-10-31T14:29:54.337Z,19.08
2022-10-31T14:32:27.654Z,19.63
2022-10-31T14:34:58.839Z,18.90
2022-10-31T14:38:13.793Z,18.55
2022-10-31T14:41:03.372Z,18.42
2022-10-31T14:44:27.228Z,19.00
2022-10-31T14:47:45.261Z,19.67
2022-10-31T14:50:36.029Z,18.67
2022-10-31T14:53:08.162Z,20.20
2022-10-31T14:55:42.614Z,21.67
2022-10-31T14:58:09.822Z,23.95
2022-10-31T15:00:37.382Z,24.10
2022-10-31T15:03:22.415Z,25.10
2022-10-31T15:06:02.338Z,25.10
2022-10-31T15:08:48.508Z,26.70
2022-10-31T15:11:37.577Z,28.70
2022-10-31T15:14:30.851Z,28.52
2022-10-31T15:17:04.393Z,29.00
2022-10-31T15:19:35.178Z,28.77
2022-10-31T15:22:02.363Z,31.60
2022-10-31T15:24:38.259Z,30.55
2022-10-31T15:27:14.909Z,30.13
2022-10-31T15:30:00.355Z,34.70
2022-10-31T15:32:30.219Z,31.87
2022-10-31T15:34:58.230Z,35.90
2022-10-31T15:37:27.808Z,35.87
2022-10-31T15:40:00.983Z,36.30
2022-10-31T15:42:41.668Z,35.20
2022-10-31T15:45:13.976Z,35.77
2022-10-31T15:47:54.152Z,34.30
2022-10-31T15:50:50.445Z,34.83
2022-10-31T15:53:34.512Z,38.23
2022-10-31T15:56:08.411Z,36.93
2022-10-31T15:58:48.119Z,36.73
2022-10-31T16:01:33.924Z,37.20
2022-10-31T16:04:14.545Z,39.33
2022-10-31T16:06:41.514Z,36.73
2022-10-31T16:09:24.983Z,38.57
2022-10-31T16:11:52.302Z,39.77
2022-10-31T16:14:26.818Z,40.07
2022-10-31T16:16:58.542Z,40.13
2022-10-31T16:19:37.247Z,41.70
2022-10-31T16:22:10.954Z,38.73
2022-10-31T16:25:12.719Z,41.33
2022-10-31T16:27:41.427Z,43.27
2022-10-31T16:30:47.900Z,43.87
2022-10-31T16:33:35.072Z,47.87
2022-10-31T16:36:34.410Z,49.90
2022-10-31T16:39:03.412Z,48.90
2022-10-31T16:41:30.520Z,36.20
2022-10-31T16:43:57.634Z,50.37
2022-10-31T16:46:27.873Z,62.40
2022-10-31T16:48:55.462Z,58.20
2022-10-31T16:51:22.427Z,76.83
2022-10-31T16:53:53.223Z,44.60
2022-10-31T16:56:30.276Z,75.33
2022-10-31T16:58:57.772Z,61.77
2022-10-31T17:01:24.891Z,43.27
2022-10-31T17:03:52.013Z,58.63
2022-10-31T17:06:18.927Z,47.97
2022-10-31T17:08:45.960Z,43.13
2022-10-31T17:11:22.215Z,52.77
2022-10-31T17:13:49.262Z,43.60
2022-10-31T17:16:16.311Z,60.50
2022-10-31T17:18:47.471Z,46.53
2022-10-31T17:21:23.661Z,45.40
2022-10-31T17:23:51.501Z,49.37
2022-10-31T17:26:19.531Z,34.77
2022-10-31T17:28:46.838Z,38.47
2022-10-31T17:31:36.507Z,34.83
2022-10-31T17:34:05.799Z,48.83
2022-10-31T17:36:34.602Z,41.70
2022-10-31T17:39:03.181Z,33.83
2022-10-31T17:41:50.242Z,40.10
2022-10-31T17:44:17.249Z,33.20
2022-10-31T17:46:55.657Z,35.63
2022-10-31T17:49:22.728Z,41.33
2022-10-31T17:51:49.691Z,40.63
2022-10-31T17:54:18.928Z,45.63
2022-10-31T17:56:46.065Z,36.77
2022-10-31T17:59:13.181Z,37.83
2022-10-31T18:01:43.019Z,36.40
2022-10-31T18:04:10.397Z,41.10
2022-10-31T18:06:37.760Z,36.33
2022-10-31T18:09:06.001Z,34.73
2022-10-31T18:11:33.466Z,34.83
2022-10-31T18:14:01.303Z,39.17
2022-10-31T18:16:28.530Z,34.50
2022-10-31T18:19:05.917Z,36.53
2022-10-31T18:21:33.279Z,33.87
2022-10-31T18:24:02.874Z,34.30
2022-10-31T18:26:30.046Z,35.93
2022-10-31T18:28:57.011Z,33.33
2022-10-31T18:31:24.764Z,42.97
2022-10-31T18:33:56.748Z,32.53
2022-10-31T18:36:25.038Z,32.70
2022-10-31T18:38:52.375Z,33.60
2022-10-31T18:41:19.765Z,31.00
2022-10-31T18:43:47.090Z,35.87
2022-10-31T18:46:18.040Z,30.53
2022-10-31T18:48:48.623Z,36.20
2022-10-31T18:51:18.293Z,31.03
2022-10-31T18:54:01.093Z,29.87
2022-10-31T18:56:31.739Z,30.23
2022-10-31T18:59:02.503Z,43.43
2022-10-31T19:01:30.781Z,33.70
2022-10-31T19:03:59.739Z,34.83
2022-10-31T19:06:28.339Z,44.87
2022-10-31T19:09:06.716Z,31.43
2022-10-31T19:11:34.670Z,28.17
2022-10-31T19:14:02.392Z,29.70
2022-10-31T19:16:32.382Z,29.53
2022-10-31T19:19:00.245Z,27.80
2022-10-31T19:21:27.670Z,35.27
2022-10-31T19:23:56.511Z,32.87
2022-10-31T19:26:27.606Z,40.73
2022-10-31T19:28:56.733Z,29.20
2022-10-31T19:31:24.814Z,31.37
2022-10-31T19:33:52.274Z,34.60
2022-10-31T19:36:24.068Z,31.97
2022-10-31T19:38:53.081Z,29.20
2022-10-31T19:41:30.382Z,30.53
2022-10-31T19:44:00.963Z,36.00
2022-10-31T19:46:48.129Z,42.80
2022-10-31T19:49:15.211Z,29.57
2022-10-31T19:51:42.582Z,38.60
2022-10-31T19:54:11.376Z,29.37
2022-10-31T19:56:38.521Z,38.50
2022-10-31T19:59:05.803Z,32.53
2022-10-31T20:01:32.934Z,27.87
2022-10-31T20:04:00.382Z,29.37
2022-10-31T20:06:36.350Z,44.23
2022-10-31T20:09:08.355Z,34.40
2022-10-31T20:11:42.481Z,30.60
2022-10-31T20:14:21.000Z,36.73
2022-10-31T20:16:50.969Z,28.33
2022-10-31T20:19:18.208Z,31.97
2022-10-31T20:21:48.564Z,27.40
2022-10-31T20:24:15.745Z,28.37
2022-10-31T20:26:42.964Z,30.60
2022-10-31T20:29:18.227Z,31.30
2022-10-31T20:31:47.249Z,38.97
2022-10-31T20:34:15.217Z,27.40
2022-10-31T20:36:46.078Z,35.07
2022-10-31T20:39:16.352Z,34.87
2022-10-31T20:41:56.320Z,33.73
2022-10-31T20:44:23.653Z,32.33
2022-10-31T20:46:51.021Z,31.70
2022-10-31T20:49:17.975Z,34.63
2022-10-31T20:51:53.257Z,36.27
2022-10-31T20:54:20.697Z,37.07
2022-10-31T20:56:48.088Z,32.53
2022-10-31T20:59:20.052Z,34.67
2022-10-31T21:01:49.984Z,37.30
2022-10-31T21:04:19.823Z,31.87
2022-10-31T21:06:49.655Z,30.47
2022-10-31T21:09:17.962Z,41.03
2022-10-31T21:11:45.062Z,33.50
2022-10-31T21:14:12.141Z,37.97
2022-10-31T21:16:41.935Z,40.03
2022-10-31T21:19:08.976Z,36.73
2022-10-31T21:21:40.480Z,35.03
2022-10-31T21:26:51.986Z,34.43
2022-10-31T21:29:26.876Z,36.30
2022-10-31T21:31:54.015Z,46.57
2022-10-31T21:34:37.914Z,32.87
2022-10-31T21:37:06.104Z,31.60
2022-10-31T21:39:38.372Z,30.07
2022-10-31T21:42:08.930Z,29.17
2022-10-31T21:44:44.673Z,28.97
2022-10-31T21:47:11.846Z,34.53
2022-10-31T21:49:41.685Z,33.90
2022-10-31T21:52:09.379Z,33.13
2022-10-31T21:54:37.462Z,32.33
2022-10-31T21:57:04.582Z,27.87
2022-10-31T21:59:31.906Z,31.13
2022-10-31T22:02:00.760Z,31.23
2022-10-31T22:04:32.451Z,28.33
2022-10-31T22:07:04.287Z,31.67
2022-10-31T22:09:34.329Z,31.03
2022-10-31T22:12:06.719Z,35.33
2022-10-31T22:14:37.022Z,27.73
2022-10-31T22:17:06.975Z,33.63
2022-10-31T22:19:34.797Z,30.97
2022-10-31T22:22:04.862Z,31.27
2022-10-31T22:24:32.295Z,36.47
2022-10-31T22:26:59.870Z,30.70
2022-10-31T22:29:30.820Z,35.90
2022-10-31T22:32:02.205Z,36.00
2022-10-31T22:34:29.380Z,31.90
2022-10-31T22:37:05.500Z,35.53
2022-10-31T22:39:32.698Z,37.90
2022-10-31T22:42:02.674Z,38.70
2022-10-31T22:44:29.729Z,33.13
2022-10-31T22:46:57.022Z,34.03
2022-10-31T22:49:24.162Z,30.40
2022-10-31T22:52:02.619Z,37.00
2022-10-31T22:54:35.262Z,37.43
2022-10-31T22:57:10.975Z,36.83
2022-10-31T22:59:38.013Z,36.07
2022-10-31T23:02:08.443Z,31.87
2022-10-31T23:04:40.253Z,28.73
2022-10-31T23:07:23.018Z,28.13
2022-10-31T23:10:02.152Z,28.27
2022-10-31T23:12:59.627Z,32.17
2022-10-31T23:15:32.386Z,37.47
2022-10-31T23:17:59.838Z,39.33
2022-10-31T23:20:27.493Z,37.63
2022-10-31T23:22:57.862Z,31.83
2022-10-31T23:25:43.802Z,41.17
2022-10-31T23:28:11.211Z,35.97
2022-10-31T23:30:46.784Z,30.93
2022-10-31T23:33:17.053Z,38.23
2022-10-31T23:35:47.356Z,34.93
2022-10-31T23:38:14.790Z,43.60
2022-10-31T23:40:49.493Z,35.67
2022-10-31T23:43:26.237Z,41.37
2022-10-31T23:45:55.599Z,32.43
2022-10-31T23:48:24.998Z,37.57
2022-10-31T23:50:59.460Z,36.00
2022-10-31T23:53:32.902Z,35.60
2022-10-31T23:56:00.133Z,48.00
2022-10-31T23:58:51.200Z,29.80
